createdAt,value
2019-06-20T00:00:46.575Z,4.80
2019-06-20T00:03:15.733Z,5.20
2019-06-20T00:05:44.264Z,5.40
2019-06-20T00:08:13.608Z,5.20
2019-06-20T00:10:42.853Z,5.47
2019-06-20T00:13:11.225Z,5.67
2019-06-20T00:15:40.620Z,5.77
2019-06-20T00:18:09.100Z,6.20
2019-06-20T00:20:37.741Z,7.37
2019-06-20T00:23:06.193Z,6.97
2019-06-20T00:25:34.584Z,8.13
2019-06-20T00:28:03.202Z,8.80
2019-06-20T00:30:31.755Z,8.73
2019-06-20T00:33:00.168Z,9.93
2019-06-20T00:35:28.562Z,9.57
2019-06-20T00:37:56.952Z,11.17
2019-06-20T00:40:25.432Z,11.50
2019-06-20T00:42:53.820Z,12.80
2019-06-20T00:45:23.141Z,13.47
2019-06-20T00:47:51.560Z,14.20
2019-06-20T00:50:20.008Z,16.20
2019-06-20T00:52:48.395Z,17.80
2019-06-20T00:55:16.801Z,18.33
2019-06-20T00:57:45.206Z,18.07
2019-06-20T01:00:14.822Z,19.03
2019-06-20T01:02:43.213Z,18.70
2019-06-20T01:05:11.740Z,19.87
2019-06-20T01:07:40.141Z,19.47
2019-06-20T01:10:10.265Z,22.13
2019-06-20T01:12:38.726Z,24.17
2019-06-20T01:15:08.366Z,25.90
2019-06-20T01:17:36.909Z,27.63
2019-06-20T01:20:08.648Z,31.00
2019-06-20T01:22:37.882Z,33.97
2019-06-20T01:25:08.149Z,40.63
2019-06-20T01:27:38.768Z,39.93
2019-06-20T01:30:09.919Z,42.07
2019-06-20T01:32:38.329Z,40.13
2019-06-20T01:35:09.129Z,42.43
2019-06-20T01:37:37.621Z,38.80
2019-06-20T01:40:08.129Z,40.33
2019-06-20T01:42:36.529Z,40.27
2019-06-20T01:45:07.752Z,41.07
2019-06-20T01:47:36.231Z,41.23
2019-06-20T01:50:07.256Z,40.37
2019-06-20T01:52:35.656Z,42.50
2019-06-20T01:55:06.076Z,40.00
2019-06-20T01:57:34.476Z,40.80
2019-06-20T02:00:02.961Z,41.63
2019-06-20T02:02:31.409Z,40.53
2019-06-20T02:04:59.817Z,40.73
2019-06-20T02:07:28.430Z,42.67
2019-06-20T02:09:57.393Z,42.43
2019-06-20T02:12:25.788Z,44.43
2019-06-20T02:14:54.186Z,45.20
2019-06-20T02:17:22.605Z,46.03
2019-06-20T02:19:51.051Z,43.53
2019-06-20T02:22:19.451Z,41.87
2019-06-20T02:24:47.858Z,40.80
2019-06-20T02:27:16.256Z,40.43
2019-06-20T02:29:44.699Z,39.30
2019-06-20T02:32:13.309Z,43.53
2019-06-20T02:34:41.714Z,41.40
2019-06-20T02:37:10.362Z,41.77
2019-06-20T02:39:38.772Z,36.13
2019-06-20T02:42:07.223Z,42.20
2019-06-20T02:44:35.617Z,41.00
2019-06-20T02:47:04.085Z,45.73
2019-06-20T02:49:32.477Z,44.80
2019-06-20T02:52:00.934Z,46.03
2019-06-20T02:54:30.296Z,45.20
2019-06-20T02:56:58.688Z,46.17
2019-06-20T02:59:27.105Z,49.53
2019-06-20T03:01:55.501Z,49.40
2019-06-20T03:04:24.053Z,48.37
2019-06-20T03:06:52.465Z,49.10
2019-06-20T03:09:20.872Z,49.97
2019-06-20T03:11:49.265Z,45.13
2019-06-20T03:14:17.677Z,48.50
2019-06-20T03:16:46.064Z,51.43
2019-06-20T03:19:14.453Z,51.60
2019-06-20T03:21:42.860Z,50.70
2019-06-20T03:24:11.246Z,53.07
2019-06-20T03:26:39.708Z,53.27
2019-06-20T03:29:08.112Z,54.27
2019-06-20T03:31:36.505Z,54.50
2019-06-20T03:34:04.914Z,59.90
2019-06-20T03:36:33.309Z,58.30
2019-06-20T03:39:01.717Z,56.17
2019-06-20T03:41:30.113Z,58.80
2019-06-20T03:43:59.177Z,60.47
2019-06-20T03:46:28.199Z,60.70
2019-06-20T03:48:56.593Z,56.77
2019-06-20T03:51:25.079Z,56.23
2019-06-20T03:53:53.486Z,56.73
2019-06-20T03:56:21.873Z,53.97
2019-06-20T03:58:50.285Z,50.63
2019-06-20T04:01:18.748Z,50.73
2019-06-20T04:03:47.141Z,51.03
2019-06-20T04:06:15.547Z,50.03
2019-06-20T04:08:43.953Z,49.00
2019-06-20T04:11:12.345Z,45.77
2019-06-20T04:13:40.807Z,45.73
2019-06-20T04:16:09.230Z,42.40
2019-06-20T04:18:38.480Z,37.87
2019-06-20T04:21:06.954Z,36.97
2019-06-20T04:23:35.407Z,39.33
2019-06-20T04:26:03.881Z,37.07
2019-06-20T04:28:32.309Z,36.37
2019-06-20T04:31:00.708Z,36.30
2019-06-20T04:33:29.109Z,38.93
2019-06-20T04:35:57.508Z,34.50
2019-06-20T04:38:25.933Z,35.80
2019-06-20T04:40:54.336Z,34.80
2019-06-20T04:43:22.734Z,33.30
2019-06-20T04:45:55.729Z,31.80
2019-06-20T04:48:24.127Z,31.77
2019-06-20T04:50:52.521Z,33.37
2019-06-20T04:53:20.925Z,32.53
2019-06-20T04:55:49.333Z,30.23
2019-06-20T04:58:17.729Z,28.83
2019-06-20T05:00:46.135Z,29.23
2019-06-20T05:03:14.544Z,29.00
2019-06-20T05:05:42.933Z,30.90
2019-06-20T05:08:11.329Z,31.33
2019-06-20T05:10:39.738Z,31.67
2019-06-20T05:13:08.163Z,31.60
2019-06-20T05:15:51.420Z,30.30
2019-06-20T05:18:06.668Z,30.13
2019-06-20T05:20:35.082Z,29.93
2019-06-20T05:23:03.555Z,27.63
2019-06-20T05:25:31.945Z,29.83
2019-06-20T05:28:00.347Z,28.73
2019-06-20T05:30:28.769Z,30.23
2019-06-20T05:32:57.216Z,26.77
2019-06-20T05:35:25.687Z,25.40
2019-06-20T05:37:54.104Z,23.83
2019-06-20T05:40:22.640Z,25.43
2019-06-20T05:42:52.042Z,26.40
2019-06-20T05:45:21.215Z,24.17
2019-06-20T05:47:49.898Z,23.30
2019-06-20T05:50:18.964Z,25.27
2019-06-20T05:52:47.422Z,23.30
2019-06-20T05:55:15.869Z,21.13
2019-06-20T05:57:44.263Z,21.87
2019-06-20T06:00:15.069Z,21.43
2019-06-20T06:02:43.530Z,21.43
2019-06-20T06:05:13.673Z,21.87
2019-06-20T06:07:42.079Z,21.43
2019-06-20T06:10:12.387Z,19.77
2019-06-20T06:12:40.793Z,20.13
2019-06-20T06:15:10.804Z,21.80
2019-06-20T06:17:39.204Z,20.63
2019-06-20T06:20:09.764Z,21.13
2019-06-20T06:22:38.245Z,19.10
2019-06-20T06:25:09.055Z,19.33
2019-06-20T06:27:37.528Z,20.50
2019-06-20T06:30:09.175Z,17.20
2019-06-20T06:32:40.402Z,19.67
2019-06-20T06:35:09.241Z,19.57
2019-06-20T06:37:37.648Z,20.67
2019-06-20T06:40:10.810Z,17.20
2019-06-20T06:42:39.212Z,17.00
2019-06-20T06:45:10.467Z,17.57
2019-06-20T06:47:38.849Z,17.97
2019-06-20T06:50:09.181Z,19.47
2019-06-20T06:52:37.569Z,18.80
2019-06-20T06:55:07.721Z,18.60
2019-06-20T06:57:57.093Z,19.33
2019-06-20T07:00:25.502Z,18.23
2019-06-20T07:02:55.084Z,20.03
2019-06-20T07:05:23.460Z,19.60
2019-06-20T07:07:51.860Z,19.67
2019-06-20T07:10:21.202Z,20.87
2019-06-20T07:12:49.601Z,19.27
2019-06-20T07:15:19.743Z,19.53
2019-06-20T07:17:48.209Z,19.27
2019-06-20T07:20:17.380Z,18.77
2019-06-20T07:22:45.777Z,21.07
2019-06-20T07:25:15.169Z,19.40
2019-06-20T07:27:43.741Z,20.37
2019-06-20T07:30:13.372Z,17.47
2019-06-20T07:32:41.761Z,18.43
2019-06-20T07:35:11.197Z,17.70
2019-06-20T07:37:39.647Z,18.20
2019-06-20T07:40:09.734Z,19.33
2019-06-20T07:42:38.137Z,19.97
2019-06-20T07:45:09.481Z,19.10
2019-06-20T07:47:38.056Z,18.37
2019-06-20T07:50:10.030Z,17.65
2019-06-20T07:52:38.434Z,17.57
2019-06-20T07:55:08.784Z,16.63
2019-06-20T07:57:37.200Z,16.53
2019-06-20T08:00:11.011Z,18.10
2019-06-20T08:02:39.535Z,18.57
2019-06-20T08:05:10.160Z,18.23
2019-06-20T08:07:38.632Z,16.80
2019-06-20T08:10:14.509Z,17.67
2019-06-20T08:12:42.982Z,17.97
2019-06-20T08:15:15.583Z,15.57
2019-06-20T08:17:43.877Z,14.33
2019-06-20T08:20:14.010Z,11.38
2019-06-20T08:22:42.999Z,12.70
2019-06-20T08:25:12.397Z,13.72
2019-06-20T08:27:51.044Z,13.93
2019-06-20T08:30:25.444Z,14.28
2019-06-20T08:32:53.982Z,15.83
2019-06-20T08:35:25.506Z,15.77
2019-06-20T08:37:56.076Z,16.97
2019-06-20T08:40:27.594Z,18.03
2019-06-20T08:42:58.428Z,16.20
2019-06-20T08:45:29.955Z,15.23
2019-06-20T08:47:58.430Z,15.18
2019-06-20T08:50:26.976Z,16.85
2019-06-20T08:52:56.609Z,16.55
2019-06-20T08:55:25.750Z,18.32
2019-06-20T08:57:55.717Z,19.43
2019-06-20T09:00:27.022Z,18.90
2019-06-20T09:02:56.873Z,19.17
2019-06-20T09:05:26.562Z,19.43
2019-06-20T09:07:56.751Z,20.43
2019-06-20T09:10:31.390Z,20.40
2019-06-20T09:12:59.791Z,22.07
2019-06-20T09:15:28.254Z,21.30
2019-06-20T09:17:58.468Z,20.23
2019-06-20T09:20:28.252Z,18.95
2019-06-20T09:22:56.792Z,18.75
2019-06-20T09:25:25.244Z,19.73
2019-06-20T09:27:54.410Z,17.23
2019-06-20T09:30:25.461Z,14.78
2019-06-20T09:32:53.941Z,16.12
2019-06-20T09:35:23.675Z,16.17
2019-06-20T09:37:53.621Z,16.33
2019-06-20T09:40:23.820Z,15.23
2019-06-20T09:42:52.890Z,15.23
2019-06-20T09:45:22.159Z,13.13
2019-06-20T09:47:52.039Z,13.70
2019-06-20T09:50:21.668Z,13.18
2019-06-20T09:52:51.369Z,12.18
2019-06-20T09:55:20.304Z,12.60
2019-06-20T09:57:50.272Z,10.40
2019-06-20T10:00:21.895Z,10.53
2019-06-20T10:02:51.799Z,11.35
2019-06-20T10:05:21.652Z,9.73
2019-06-20T10:07:50.371Z,10.08
2019-06-20T10:10:22.469Z,10.45
2019-06-20T10:12:51.766Z,10.08
2019-06-20T10:15:23.899Z,10.43
2019-06-20T10:17:54.402Z,11.85
2019-06-20T10:20:25.166Z,9.38
2019-06-20T10:22:54.322Z,10.40
2019-06-20T10:25:23.854Z,12.80
2019-06-20T10:27:53.546Z,14.38
2019-06-20T10:30:24.249Z,14.47
2019-06-20T10:32:53.191Z,15.67
2019-06-20T10:35:23.240Z,15.73
2019-06-20T10:37:52.926Z,16.85
2019-06-20T10:40:22.791Z,14.50
2019-06-20T10:42:52.789Z,16.13
2019-06-20T10:45:25.040Z,14.87
2019-06-20T10:47:54.404Z,16.10
2019-06-20T10:50:24.740Z,15.60
2019-06-20T10:52:55.992Z,15.27
2019-06-20T10:55:25.850Z,16.70
2019-06-20T10:57:54.684Z,14.68
2019-06-20T11:00:31.353Z,15.00
2019-06-20T11:02:56.768Z,15.50
2019-06-20T11:05:25.241Z,13.68
2019-06-20T11:07:53.673Z,13.55
2019-06-20T11:10:22.890Z,12.00
2019-06-20T11:12:55.724Z,10.53
2019-06-20T11:15:24.051Z,10.68
2019-06-20T11:17:56.170Z,11.75
2019-06-20T11:20:23.652Z,10.55
2019-06-20T11:22:52.347Z,10.53
2019-06-20T11:25:22.436Z,10.45
2019-06-20T11:27:50.883Z,8.73
2019-06-20T11:30:25.354Z,8.95
2019-06-20T11:32:53.735Z,10.90
2019-06-20T11:35:22.166Z,11.22
2019-06-20T11:37:50.654Z,12.90
2019-06-20T11:40:20.193Z,11.88
2019-06-20T11:42:48.584Z,12.98
2019-06-20T11:45:17.973Z,12.93
2019-06-20T11:47:47.325Z,11.75
2019-06-20T11:50:17.497Z,12.60
2019-06-20T11:52:46.107Z,12.30
2019-06-20T11:55:15.497Z,11.83
2019-06-20T11:57:44.049Z,11.60
2019-06-20T12:00:14.355Z,11.33
2019-06-20T12:02:44.079Z,10.90
2019-06-20T12:05:13.486Z,11.60
2019-06-20T12:07:43.523Z,11.70
2019-06-20T12:10:15.722Z,10.25
2019-06-20T12:12:44.736Z,10.40
2019-06-20T12:15:16.555Z,9.80
2019-06-20T12:17:45.428Z,9.77
2019-06-20T12:20:16.552Z,9.00
2019-06-20T12:22:45.130Z,9.87
2019-06-20T12:25:15.506Z,7.83
2019-06-20T12:27:45.443Z,8.03
2019-06-20T12:30:16.920Z,7.67
2019-06-20T12:32:46.803Z,8.13
2019-06-20T12:35:16.598Z,6.73
2019-06-20T12:37:45.354Z,6.80
2019-06-20T12:40:14.817Z,7.53
2019-06-20T12:42:44.747Z,5.57
2019-06-20T12:45:15.351Z,6.77
2019-06-20T12:47:46.307Z,6.67
2019-06-20T12:50:15.753Z,7.37
2019-06-20T12:52:45.403Z,8.40
2019-06-20T12:55:15.605Z,8.17
2019-06-20T12:57:44.256Z,9.67
2019-06-20T13:00:15.535Z,8.50
2019-06-20T13:02:45.359Z,10.60
2019-06-20T13:05:16.062Z,10.27
2019-06-20T13:07:44.594Z,10.07
2019-06-20T13:10:15.854Z,8.40
2019-06-20T13:12:44.377Z,8.40
2019-06-20T13:15:13.776Z,7.97
2019-06-20T13:17:43.662Z,8.10
2019-06-20T13:20:13.646Z,8.00
2019-06-20T13:22:42.883Z,9.10
2019-06-20T13:25:14.008Z,7.50
2019-06-20T13:27:43.449Z,7.83
2019-06-20T13:30:14.472Z,7.43
2019-06-20T13:32:45.233Z,7.07
2019-06-20T13:35:14.622Z,7.37
2019-06-20T13:37:43.444Z,6.60
2019-06-20T13:40:15.119Z,6.93
2019-06-20T13:42:44.189Z,7.40
2019-06-20T13:45:22.571Z,7.13
2019-06-20T13:47:50.972Z,8.20
2019-06-20T13:50:21.302Z,6.57
2019-06-20T13:52:51.254Z,7.70
2019-06-20T13:55:20.031Z,6.93
2019-06-20T13:57:49.253Z,7.30
2019-06-20T14:00:21.717Z,7.77
2019-06-20T14:02:51.579Z,7.67
2019-06-20T14:05:21.109Z,7.70
2019-06-20T14:07:51.829Z,7.10
2019-06-20T14:10:20.653Z,5.83
2019-06-20T14:12:49.044Z,6.47
2019-06-20T14:15:17.678Z,5.93
2019-06-20T14:17:47.175Z,5.43
2019-06-20T14:20:18.073Z,5.17
2019-06-20T14:22:46.464Z,5.30
2019-06-20T14:25:15.271Z,5.30
2019-06-20T14:27:43.950Z,6.00
2019-06-20T14:30:14.157Z,5.90
2019-06-20T14:32:43.180Z,6.40
2019-06-20T14:35:13.357Z,6.25
2019-06-20T14:37:44.298Z,6.33
2019-06-20T14:40:13.969Z,5.78
2019-06-20T14:42:42.770Z,6.45
2019-06-20T14:45:14.716Z,6.00
2019-06-20T14:47:43.253Z,6.22
2019-06-20T14:50:13.809Z,5.87
2019-06-20T14:52:42.891Z,6.65
2019-06-20T14:55:13.169Z,6.22
2019-06-20T14:57:41.558Z,6.22
2019-06-20T15:00:12.330Z,6.58
2019-06-20T15:02:40.765Z,6.12
2019-06-20T15:05:14.863Z,6.55
2019-06-20T15:07:46.717Z,6.67
2019-06-20T15:10:15.628Z,6.65
2019-06-20T15:12:45.722Z,6.25
2019-06-20T15:15:15.268Z,7.28
2019-06-20T15:17:46.542Z,7.47
2019-06-20T15:20:14.560Z,7.75
2019-06-20T15:22:43.028Z,7.10
2019-06-20T15:25:13.373Z,7.17
2019-06-20T15:27:41.746Z,5.60
2019-06-20T15:30:11.003Z,7.10
2019-06-20T15:32:53.412Z,6.55
2019-06-20T15:35:10.753Z,6.35
2019-06-20T15:37:39.192Z,7.50
2019-06-20T15:40:09.778Z,6.95
2019-06-20T15:42:38.173Z,6.47
2019-06-20T15:45:09.857Z,6.08
2019-06-20T15:47:38.610Z,6.50
2019-06-20T15:50:08.338Z,5.80
2019-06-20T15:52:36.743Z,7.20
2019-06-20T15:55:10.742Z,5.47
2019-06-20T15:57:40.189Z,5.70
2019-06-20T16:00:10.833Z,6.47
2019-06-20T16:02:39.434Z,5.30
2019-06-20T16:05:09.264Z,6.00
2019-06-20T16:07:39.491Z,5.10
2019-06-20T16:10:10.534Z,5.65
2019-06-20T16:12:38.917Z,6.12
2019-06-20T16:15:09.248Z,6.12
2019-06-20T16:17:37.644Z,6.42
2019-06-20T16:20:07.437Z,5.53
2019-06-20T16:22:35.830Z,5.58
2019-06-20T16:25:06.353Z,5.37
2019-06-20T16:27:34.761Z,4.95
2019-06-20T16:30:04.636Z,4.90
2019-06-20T16:32:33.568Z,4.50
2019-06-20T16:35:01.985Z,5.20
2019-06-20T16:37:30.372Z,5.12
2019-06-20T16:39:58.801Z,5.22
2019-06-20T16:42:27.195Z,4.70
2019-06-20T16:44:55.626Z,4.90
2019-06-20T16:47:24.021Z,5.05
2019-06-20T16:49:52.405Z,5.62
2019-06-20T16:52:20.791Z,5.42
2019-06-20T16:54:49.194Z,5.33
2019-06-20T16:57:17.665Z,6.15
2019-06-20T16:59:46.067Z,6.30
2019-06-20T17:02:14.457Z,4.90
2019-06-20T17:04:42.858Z,4.37
2019-06-20T17:07:11.260Z,4.70
2019-06-20T17:09:39.637Z,8.10
2019-06-20T17:12:11.075Z,11.07
2019-06-20T17:14:38.169Z,12.30
2019-06-20T17:17:08.698Z,13.20
2019-06-20T17:19:37.111Z,13.93
2019-06-20T17:22:05.524Z,15.50
2019-06-20T17:24:33.914Z,16.80
2019-06-20T17:27:02.361Z,17.17
2019-06-20T17:29:30.835Z,16.10
2019-06-20T17:31:59.234Z,18.93
2019-06-20T17:34:27.634Z,16.63
2019-06-20T17:36:56.032Z,15.47
2019-06-20T17:39:24.578Z,15.47
2019-06-20T17:41:55.539Z,15.53
2019-06-20T17:44:24.015Z,15.70
2019-06-20T17:46:53.877Z,17.03
2019-06-20T17:49:22.290Z,15.57
2019-06-20T17:51:50.713Z,17.03
2019-06-20T17:54:19.168Z,17.90
2019-06-20T17:56:47.590Z,17.43
2019-06-20T17:59:15.969Z,17.30
2019-06-20T18:01:44.384Z,16.90
2019-06-20T18:04:13.990Z,17.07
2019-06-20T18:06:42.892Z,16.40
2019-06-20T18:09:11.294Z,16.20
2019-06-20T18:11:39.783Z,15.30
2019-06-20T18:14:08.277Z,13.73
2019-06-20T18:16:36.705Z,14.80
2019-06-20T18:19:05.179Z,14.60
2019-06-20T18:21:33.632Z,14.20
2019-06-20T18:24:02.051Z,14.00
2019-06-20T18:26:30.434Z,14.67
2019-06-20T18:28:58.821Z,14.43
2019-06-20T18:31:27.229Z,15.10
2019-06-20T18:33:55.754Z,14.07
2019-06-20T18:36:24.157Z,13.67
2019-06-20T18:38:53.662Z,14.10
2019-06-20T18:41:24.949Z,14.30
2019-06-20T18:43:53.977Z,14.47
2019-06-20T18:46:22.395Z,14.90
2019-06-20T18:48:50.793Z,15.07
2019-06-20T18:51:19.211Z,15.03
2019-06-20T18:53:50.569Z,14.50
2019-06-20T18:56:17.804Z,14.50
2019-06-20T18:58:46.198Z,14.60
2019-06-20T19:01:14.613Z,14.70
2019-06-20T19:03:43.005Z,14.53
2019-06-20T19:06:11.408Z,15.67
2019-06-20T19:08:39.864Z,15.33
2019-06-20T19:11:08.319Z,14.50
2019-06-20T19:13:36.730Z,15.87
2019-06-20T19:16:05.279Z,15.30
2019-06-20T19:18:33.847Z,15.40
2019-06-20T19:21:03.456Z,15.57
2019-06-20T19:23:31.804Z,18.17
2019-06-20T19:26:00.230Z,17.93
2019-06-20T19:28:28.620Z,19.10
2019-06-20T19:30:57.044Z,19.03
2019-06-20T19:33:25.429Z,18.77
2019-06-20T19:35:53.883Z,19.07
2019-06-20T19:38:22.272Z,20.37
2019-06-20T19:40:51.729Z,21.10
2019-06-20T19:43:21.728Z,22.57
2019-06-20T19:45:50.244Z,22.80
2019-06-20T19:48:18.674Z,21.93
2019-06-20T19:50:50.597Z,22.80
2019-06-20T19:53:19.140Z,24.20
2019-06-20T19:55:49.614Z,23.90
2019-06-20T19:58:17.726Z,24.50
2019-06-20T20:00:46.133Z,24.40
2019-06-20T20:03:14.780Z,24.57
2019-06-20T20:05:45.225Z,25.87
2019-06-20T20:08:13.778Z,27.37
2019-06-20T20:10:47.266Z,26.87
2019-06-20T20:13:17.590Z,25.90
2019-06-20T20:15:46.552Z,27.43
2019-06-20T20:18:16.336Z,25.83
2019-06-20T20:20:47.663Z,27.67
2019-06-20T20:23:16.367Z,27.13
2019-06-20T20:25:44.773Z,27.93
2019-06-20T20:28:13.169Z,24.07
2019-06-20T20:30:42.437Z,22.13
2019-06-20T20:33:10.977Z,21.90
2019-06-20T20:35:39.372Z,21.50
2019-06-20T20:38:07.832Z,21.00
2019-06-20T20:40:36.239Z,20.43
2019-06-20T20:43:05.504Z,19.53
2019-06-20T20:45:33.900Z,20.67
2019-06-20T20:48:02.353Z,20.83
2019-06-20T20:50:30.782Z,20.07
2019-06-20T20:52:59.182Z,19.97
2019-06-20T20:55:27.582Z,21.20
2019-06-20T20:57:55.976Z,20.50
2019-06-20T21:00:42.505Z,20.83
2019-06-20T21:03:10.921Z,20.03
2019-06-20T21:05:50.935Z,20.10
2019-06-20T21:08:09.453Z,20.63
2019-06-20T21:10:37.858Z,20.83
2019-06-20T21:13:06.260Z,20.57
2019-06-20T21:15:34.665Z,22.03
2019-06-20T21:18:03.071Z,22.53
2019-06-20T21:20:31.490Z,23.73
2019-06-20T21:22:59.885Z,25.33
2019-06-20T21:25:32.042Z,24.03
2019-06-20T21:27:58.399Z,25.13
2019-06-20T21:30:26.942Z,25.03
2019-06-20T21:32:55.333Z,27.00
2019-06-20T21:35:24.536Z,29.20
2019-06-20T21:37:52.980Z,26.80
2019-06-20T21:40:21.502Z,27.87
2019-06-20T21:42:49.905Z,28.77
2019-06-20T21:45:19.086Z,27.90
2019-06-20T21:47:47.523Z,28.50
2019-06-20T21:50:16.736Z,30.47
2019-06-20T21:52:45.136Z,29.40
2019-06-20T21:55:13.677Z,29.10
2019-06-20T21:57:42.073Z,30.50
2019-06-20T22:00:16.061Z,29.57
2019-06-20T22:02:45.101Z,29.03
2019-06-20T22:05:15.113Z,27.97
2019-06-20T22:07:43.507Z,27.57
2019-06-20T22:10:12.041Z,25.97
2019-06-20T22:12:40.477Z,25.93
2019-06-20T22:15:09.705Z,25.47
2019-06-20T22:17:38.097Z,26.33
2019-06-20T22:20:08.129Z,29.13
2019-06-20T22:22:36.593Z,30.33
2019-06-20T22:25:08.952Z,32.10
2019-06-20T22:27:38.097Z,30.77
2019-06-20T22:30:10.641Z,29.77
2019-06-20T22:32:39.036Z,29.03
2019-06-20T22:35:09.766Z,30.33
2019-06-20T22:37:38.236Z,29.97
2019-06-20T22:40:09.353Z,29.43
2019-06-20T22:42:37.838Z,28.10
2019-06-20T22:45:08.202Z,28.27
2019-06-20T22:47:37.357Z,27.17
2019-06-20T22:50:10.044Z,27.33
2019-06-20T22:52:38.433Z,28.23
2019-06-20T22:55:08.076Z,29.20
2019-06-20T22:57:36.617Z,28.90
2019-06-20T23:00:09.673Z,28.70
2019-06-20T23:02:38.839Z,26.13
2019-06-20T23:05:09.270Z,28.40
2019-06-20T23:07:37.661Z,27.20
2019-06-20T23:10:10.884Z,26.13
2019-06-20T23:12:38.510Z,25.70
2019-06-20T23:15:08.237Z,24.90
2019-06-20T23:17:36.709Z,24.33
2019-06-20T23:20:08.185Z,26.07
2019-06-20T23:22:36.586Z,25.23
2019-06-20T23:25:08.736Z,25.40
2019-06-20T23:27:37.205Z,25.57
2019-06-20T23:30:09.937Z,26.50
2019-06-20T23:32:38.425Z,25.43
2019-06-20T23:35:08.000Z,25.33
2019-06-20T23:37:36.516Z,23.90
2019-06-20T23:40:06.691Z,25.03
2019-06-20T23:42:35.098Z,22.37
2019-06-20T23:45:08.023Z,21.07
2019-06-20T23:47:37.169Z,23.97
2019-06-20T23:50:09.840Z,23.97
2019-06-20T23:52:39.899Z,24.00
2019-06-20T23:55:08.840Z,23.67
2019-06-20T23:57:37.233Z,24.73
